Time;durP1;ratioP1;P1;durP2;ratioP2;P2;SDS_P1;SDS_P2;PMS_P1;PMS_P2;Temp;Humidity;BMP_temperature;BMP_pressure;BME280_temperature;BME280_humidity;BME280_pressure;Samples;Min_cycle;Max_cycle;Signal;HPM_P1;HPM_P2
2022/04/02 00:00:11;;;;;;;4.45;1.00;;;;;;;;;;5041328;23;20017;-43
2022/04/02 00:02:34;;;;;;;9.25;1.25;;;;;;;;;;5044376;23;20040;-44
2022/04/02 00:04:56;;;;;;;3.17;0.60;;;;;;;;;;5040421;23;20035;-45
2022/04/02 00:07:18;;;;;;;2.40;0.85;;;;;;;;;;5039399;23;20544;-46
2022/04/02 00:09:41;;;;;;;3.55;0.85;;;;;;;;;;5037385;23;20021;-45
2022/04/02 00:12:03;;;;;;;11.60;1.33;;;;;;;;;;5036105;23;20959;-46
2022/04/02 00:14:26;;;;;;;12.40;1.50;;;;;;;;;;5043240;23;21033;-44
2022/04/02 00:16:48;;;;;;;11.77;1.45;;;19.70;69.20;;;;;;5047211;23;20018;-49
2022/04/02 00:19:10;;;;;;;6.18;0.85;;;;;;;;;;5042069;23;20014;-50
2022/04/02 00:21:33;;;;;;;1.92;0.50;;;;;;;;;;5013327;23;20293;-45
2022/04/02 00:23:55;;;;;;;4.20;0.55;;;;;;;;;;5049016;23;20024;-44
2022/04/02 00:26:20;;;;;;;2.72;0.65;;;;;;;;;;5041662;23;20018;-43
2022/04/02 00:28:43;;;;;;;2.80;0.47;;;;;;;;;;5036331;23;20986;-45
2022/04/02 00:31:07;;;;;;;0.33;0.33;;;;;;;;;;5049336;23;20037;-43
2022/04/02 00:33:30;;;;;;;0.80;0.68;;;;;;;;;;5042566;23;20013;-46
2022/04/02 00:35:53;;;;;;;1.08;0.30;;;;;;;;;;5037834;23;20013;-46
2022/04/02 00:38:15;;;;;;;0.77;0.35;;;;;;;;;;5039243;23;20018;-49
2022/04/02 00:40:42;;;;;;;0.63;0.50;;;;;;;;;;5042986;23;20112;-49
2022/04/02 00:43:04;;;;;;;1.10;0.60;;;;;;;;;;5046902;23;20879;-46
2022/04/02 00:45:27;;;;;;;0.80;0.43;;;;;;;;;;5045180;23;20238;-45
2022/04/02 00:47:50;;;;;;;1.38;0.77;;;;;;;;;;5042936;23;20013;-46
2022/04/02 00:50:12;;;;;;;0.75;0.40;;;;;;;;;;5046621;23;20025;-44
2022/04/02 00:52:35;;;;;;;1.08;0.30;;;;;;;;;;5045508;23;20066;-47
2022/04/02 00:54:57;;;;;;;4.03;0.70;;;;;;;;;;5040377;23;20651;-49
2022/04/02 00:57:22;;;;;;;2.45;0.50;;;;;;;;;;5019825;23;20021;-49
2022/04/02 00:59:45;;;;;;;0.82;0.40;;;;;;;;;;5036365;23;20021;-44
2022/04/02 01:02:07;;;;;;;2.58;0.50;;;;;;;;;;5037401;23;20013;-46
2022/04/02 01:04:29;;;;;;;0.68;0.30;;;;;;;;;;5043815;23;20124;-46
2022/04/02 01:06:52;;;;;;;1.85;0.40;;;;;;;;;;5046314;23;20144;-51
2022/04/02 01:09:15;;;;;;;0.30;0.30;;;;;;;;;;5045193;23;20095;-43
2022/04/02 01:11:37;;;;;;;0.52;0.47;;;;;;;;;;5046951;23;20017;-50
2022/04/02 01:13:59;;;;;;;1.23;0.60;;;;;;;;;;5050286;23;20033;-48
2022/04/02 01:16:22;;;;;;;1.25;0.20;;;;;;;;;;5049677;23;20025;-43
2022/04/02 01:18:44;;;;;;;3.80;0.40;;;;;;;;;;5049948;23;20013;-46
2022/04/02 01:21:06;;;;;;;0.20;0.20;;;;;;;;;;5054677;23;20104;-47
2022/04/02 01:23:29;;;;;;;0.52;0.20;;;;;;;;;;5050366;23;20024;-46
2022/04/02 01:25:51;;;;;;;0.43;0.43;;;;;;;;;;5042662;23;21190;-45
2022/04/02 01:28:14;;;;;;;0.30;0.20;;;;;;;;;;5055717;23;20438;-44
2022/04/02 01:30:36;;;;;;;0.35;0.30;;;;;;;;;;5046026;23;20080;-48
2022/04/02 01:32:59;;;;;;;0.52;0.40;;;;;;;;;;5047911;23;20415;-50
2022/04/02 01:35:21;;;;;;;0.30;0.30;;;;;;;;;;5054509;23;20495;-46
2022/04/02 01:37:44;;;;;;;0.30;0.30;;;;;;;;;;5044796;23;20458;-46
2022/04/02 01:40:07;;;;;;;0.68;0.40;;;;;;;;;;5050456;23;20017;-46
2022/04/02 01:42:30;;;;;;;0.32;0.32;;;;;;;;;;5047839;23;20017;-45
2022/04/02 01:44:52;;;;;;;0.60;0.40;;;;;;;;;;5046374;23;20041;-48
2022/04/02 01:47:15;;;;;;;0.20;0.20;;;;;;;;;;5047058;23;20128;-47
2022/04/02 01:49:37;;;;;;;0.28;0.28;;;;;;;;;;5053463;23;20043;-47
2022/04/02 01:51:59;;;;;;;0.73;0.30;;;;;;;;;;5049685;23;20017;-47
2022/04/02 01:54:22;;;;;;;1.75;0.40;;;;;;;;;;5047496;23;20017;-43
2022/04/02 01:56:44;;;;;;;0.88;0.30;;;;;;;;;;5050156;23;20021;-44
2022/04/02 01:59:07;;;;;;;0.75;0.30;;;;;;;;;;5051217;23;20068;-48
2022/04/02 02:01:29;;;;;;;0.30;0.30;;;;;;;;;;5045694;23;20013;-48
2022/04/02 02:03:51;;;;;;;0.40;0.40;;;;;;;;;;5050580;23;20021;-44
2022/04/02 02:06:14;;;;;;;0.22;0.22;;;;;;;;;;5054126;23;20021;-48
2022/04/02 02:08:36;;;;;;;0.20;0.20;;;;;;;;;;5049065;23;20028;-47
2022/04/02 02:10:58;;;;;;;0.40;0.40;;;;;;;;;;5050034;23;20124;-46
2022/04/02 02:13:21;;;;;;;2.85;0.40;;;;;;;;;;5054247;23;20013;-45
2022/04/02 02:15:43;;;;;;;0.52;0.30;;;20.70;68.70;;;;;;5046417;23;20025;-46
2022/04/02 02:18:06;;;;;;;0.43;0.30;;;22.00;67.40;;;;;;5041537;23;20096;-46
2022/04/02 02:20:29;;;;;;;0.47;0.35;;;22.00;66.50;;;;;;5056197;23;20049;-48
2022/04/02 02:22:51;;;;;;;1.75;0.32;;;22.00;66.50;;;;;;5048836;23;20013;-52
2022/04/02 02:25:15;;;;;;;1.45;0.40;;;22.10;66.50;;;;;;5049416;23;20022;-45
2022/04/02 02:27:42;;;;;;;0.75;0.30;;;22.10;66.40;;;;;;5056997;23;20013;-50
2022/04/02 02:30:06;;;;;;;1.10;0.30;;;22.10;66.30;;;;;;5048889;23;20029;-46
2022/04/02 02:32:31;;;;;;;0.40;0.32;;;22.10;66.50;;;;;;5051999;23;21406;-46
2022/04/02 02:37:34;;;;;;;0.57;0.20;;;22.10;66.50;;;;;;5061876;23;20026;-49
2022/04/02 02:39:57;;;;;;;0.43;0.43;;;22.20;66.50;;;;;;5051784;23;20031;-47
2022/04/02 02:42:19;;;;;;;0.20;0.20;;;22.20;66.50;;;;;;5051496;23;20014;-56
2022/04/02 02:44:41;;;;;;;0.75;0.30;;;22.20;66.30;;;;;;5053534;23;20069;-52
2022/04/02 02:47:04;;;;;;;0.38;0.30;;;22.30;66.30;;;;;;5049181;23;20037;-48
2022/04/02 02:49:27;;;;;;;0.20;0.20;;;22.30;66.30;;;;;;5046788;23;20017;-46
2022/04/02 02:51:49;;;;;;;0.25;0.20;;;22.30;66.20;;;;;;5059705;23;20766;-44
2022/04/02 02:54:11;;;;;;;0.68;0.40;;;22.30;66.10;;;;;;5053801;23;20020;-45
2022/04/02 02:56:34;;;;;;;0.25;0.25;;;22.30;66.10;;;;;;5052327;23;20017;-46
2022/04/02 02:58:57;;;;;;;0.52;0.30;;;22.30;66.10;;;;;;5058424;23;20014;-48
2022/04/02 03:01:19;;;;;;;1.08;0.30;;;22.30;66.20;;;;;;5041417;23;20022;-49
2022/04/02 03:03:42;;;;;;;0.40;0.40;;;22.30;66.20;;;;;;5039554;23;20333;-50
2022/04/02 03:06:04;;;;;;;1.13;0.60;;;22.40;66.30;;;;;;5058372;23;20021;-46
2022/04/02 03:08:28;;;;;;;0.30;0.30;;;22.40;66.20;;;;;;5054234;23;20018;-45
2022/04/02 03:10:50;;;;;;;0.35;0.35;;;22.40;66.20;;;;;;5039556;23;20044;-52
2022/04/02 03:13:13;;;;;;;0.35;0.25;;;22.40;66.20;;;;;;5060062;23;20748;-44
2022/04/02 03:15:36;;;;;;;0.30;0.30;;;22.40;66.20;;;;;;5053843;23;20018;-46
2022/04/02 03:18:04;;;;;;;0.30;0.30;;;22.50;66.20;;;;;;5054620;23;20021;-47
2022/04/02 03:20:28;;;;;;;0.35;0.30;;;22.50;66.10;;;;;;5050553;23;20041;-49
2022/04/02 03:22:51;;;;;;;0.30;0.30;;;22.50;66.10;;;;;;5056029;23;20029;-47
2022/04/02 03:25:16;;;;;;;0.40;0.37;;;22.50;66.10;;;;;;5062244;23;20013;-49
2022/04/02 03:27:40;;;;;;;0.40;0.40;;;22.50;66.00;;;;;;5063471;23;20069;-49
2022/04/02 03:30:04;;;;;;;1.30;0.40;;;22.60;66.00;;;;;;5059095;23;20096;-50
2022/04/02 03:32:26;;;;;;;;;;;22.60;66.00;;;;;;5041714;23;20033;-52
2022/04/02 03:34:48;;;;;;;0.43;0.40;;;22.60;66.10;;;;;;5061640;23;19911;-43
2022/04/02 03:37:13;;;;;;;0.40;0.40;;;22.60;66.00;;;;;;5073050;23;20360;-48
2022/04/02 03:40:10;;;;;;;0.22;0.22;;;22.60;66.10;;;;;;5047949;23;20374;-50
2022/04/02 03:42:37;;;;;;;0.30;0.30;;;22.70;66.00;;;;;;5076048;23;20045;-45
2022/04/02 03:45:00;;;;;;;0.75;0.47;;;22.70;66.00;;;;;;5056451;23;20422;-48
2022/04/02 03:50:40;;;;;;;0.20;0.20;;;22.70;66.00;;;;;;5057165;23;20109;-50
2022/04/02 03:53:04;;;;;;;0.32;0.32;;;22.70;65.90;;;;;;5061436;23;20032;-53
2022/04/02 03:55:26;;;;;;;0.90;0.40;;;22.80;66.00;;;;;;5048495;23;20073;-53
2022/04/02 03:57:49;;;;;;;0.30;0.30;;;22.90;66.00;;;;;;5051368;23;20041;-49
2022/04/02 04:00:12;;;;;;;0.43;0.30;;;22.90;65.90;;;;;;5045574;23;20020;-50
2022/04/02 04:02:37;;;;;;;0.77;0.40;;;22.90;65.90;;;;;;5048080;23;20578;-48
2022/04/02 04:04:59;;;;;;;1.05;0.30;;;22.90;65.80;;;;;;5049586;23;20018;-46
2022/04/02 04:07:23;;;;;;;1.58;0.55;;;23.00;65.70;;;;;;5044661;23;20040;-47
2022/04/02 04:09:46;;;;;;;1.17;0.30;;;23.00;65.70;;;;;;5050861;23;21015;-49
2022/04/02 04:12:10;;;;;;;1.27;0.40;;;23.10;65.50;;;;;;5052309;23;20047;-51
2022/04/02 04:14:32;;;;;;;;;;;23.10;65.40;;;;;;5047266;23;20151;-51
2022/04/02 04:16:55;;;;;;;0.47;0.40;;;23.20;65.40;;;;;;5050923;23;19904;-50
2022/04/02 04:19:19;;;;;;;0.20;0.20;;;23.20;65.30;;;;;;5047451;23;20013;-47
2022/04/02 04:21:42;;;;;;;0.63;0.50;;;23.20;65.20;;;;;;5046991;23;20100;-53
2022/04/02 04:24:06;;;;;;;0.30;0.30;;;23.30;65.30;;;;;;5043592;23;20211;-51
2022/04/02 04:26:29;;;;;;;1.10;0.40;;;23.30;65.20;;;;;;5046986;23;20552;-45
2022/04/02 04:28:51;;;;;;;1.05;0.25;;;23.40;64.90;;;;;;5048256;23;20029;-53
2022/04/02 04:31:17;;;;;;;0.65;0.30;;;23.40;64.80;;;;;;5054466;23;20027;-49
2022/04/02 04:33:39;;;;;;;1.52;0.40;;;23.40;64.70;;;;;;5049134;23;20164;-50
2022/04/02 04:36:02;;;;;;;0.30;0.30;;;23.40;64.80;;;;;;5049664;23;20013;-47
2022/04/02 04:38:25;;;;;;;0.30;0.30;;;23.50;64.80;;;;;;5054166;23;20092;-46
2022/04/02 04:40:47;;;;;;;0.82;0.40;;;23.50;64.80;;;;;;5049221;23;20519;-52
2022/04/02 04:43:10;;;;;;;1.10;0.65;;;23.50;64.60;;;;;;5051099;23;20028;-53
2022/04/02 04:45:32;;;;;;;0.30;0.30;;;23.50;64.70;;;;;;5048354;23;20810;-50
2022/04/02 04:47:55;;;;;;;0.22;0.22;;;23.60;64.60;;;;;;5047945;23;20104;-50
2022/04/02 04:50:19;;;;;;;0.22;0.22;;;23.60;64.50;;;;;;5051721;23;20029;-51
2022/04/02 04:52:41;;;;;;;0.50;0.38;;;23.70;64.50;;;;;;5055988;23;20083;-49
2022/04/02 04:55:04;;;;;;;1.10;0.50;;;23.70;64.40;;;;;;5050183;23;20036;-48
2022/04/02 04:57:27;;;;;;;0.20;0.20;;;23.80;64.30;;;;;;5048992;23;20017;-51
2022/04/02 04:59:49;;;;;;;1.75;0.47;;;23.80;64.20;;;;;;5056343;23;20827;-55
2022/04/02 05:02:12;;;;;;;0.20;0.20;;;23.80;64.10;;;;;;5040540;23;20017;-50
2022/04/02 05:04:34;;;;;;;1.33;0.45;;;23.90;64.00;;;;;;5038578;23;20120;-53
2022/04/02 05:06:58;;;;;;;0.38;0.25;;;23.90;63.80;;;;;;5056074;23;20093;-45
2022/04/02 05:09:20;;;;;;;;;;;24.00;63.60;;;;;;5051284;23;20714;-51
2022/04/02 05:11:43;;;;;;;0.22;0.22;;;24.00;63.40;;;;;;5051055;23;20433;-49
2022/04/02 05:14:05;;;;;;;0.68;0.38;;;24.00;63.40;;;;;;5054937;23;20507;-46
2022/04/02 05:16:28;;;;;;;0.20;0.20;;;24.00;63.50;;;;;;5051559;23;20457;-46
2022/04/02 05:18:52;;;;;;;3.53;0.38;;;24.00;63.50;;;;;;5038237;23;20024;-53
2022/04/02 05:21:15;;;;;;;0.20;0.20;;;24.00;64.20;;;;;;5050184;23;20024;-45
2022/04/02 05:23:37;;;;;;;0.43;0.23;;;24.00;63.60;;;;;;5045727;23;20760;-50
2022/04/02 05:26:00;;;;;;;0.30;0.30;;;24.10;63.60;;;;;;5050616;23;20021;-46
2022/04/02 05:28:22;;;;;;;0.20;0.20;;;24.10;63.60;;;;;;5058604;23;20718;-49
2022/04/02 05:30:45;;;;;;;0.90;0.35;;;24.10;63.50;;;;;;5059564;23;20104;-46
2022/04/02 05:33:08;;;;;;;1.15;0.30;;;24.20;63.60;;;;;;5048067;23;20759;-52
2022/04/02 05:35:31;;;;;;;0.28;0.28;;;24.20;63.50;;;;;;5052164;23;20040;-53
2022/04/02 05:37:53;;;;;;;2.40;0.35;;;24.20;63.50;;;;;;5048459;23;20013;-44
2022/04/02 05:40:16;;;;;;;0.35;0.30;;;24.30;63.40;;;;;;5047173;23;20049;-50
2022/04/02 05:42:38;;;;;;;0.20;0.20;;;24.30;63.30;;;;;;5047242;23;20089;-48
2022/04/02 05:45:01;;;;;;;0.40;0.40;;;24.30;63.20;;;;;;5048299;23;20028;-47
2022/04/02 05:47:23;;;;;;;0.25;0.25;;;24.40;63.20;;;;;;5046517;23;20092;-44
2022/04/02 05:49:51;;;;;;;0.30;0.30;;;24.40;63.20;;;;;;5050897;23;20013;-52
2022/04/02 05:52:13;;;;;;;1.30;0.30;;;24.40;63.10;;;;;;5052699;23;20022;-52
2022/04/02 05:54:36;;;;;;;0.30;0.20;;;24.30;63.10;;;;;;5049026;23;20522;-46
2022/04/02 05:56:59;;;;;;;0.88;0.47;;;24.30;63.20;;;;;;5054484;23;20021;-47
2022/04/02 05:59:22;;;;;;;0.43;0.40;;;24.30;63.20;;;;;;5045474;23;20018;-51
2022/04/02 06:01:45;;;;;;;0.20;0.20;;;24.30;63.20;;;;;;5046929;23;20630;-45
2022/04/02 06:04:07;;;;;;;0.28;0.28;;;24.30;63.20;;;;;;5052370;23;20027;-52
2022/04/02 06:06:33;;;;;;;0.30;0.28;;;24.30;63.30;;;;;;5047776;23;20076;-48
2022/04/02 06:08:55;;;;;;;0.32;0.32;;;24.30;63.30;;;;;;5047809;23;20963;-46
2022/04/02 06:11:18;;;;;;;1.20;0.40;;;24.30;63.30;;;;;;5056260;23;20056;-45
2022/04/02 06:13:40;;;;;;;0.52;0.25;;;24.30;63.40;;;;;;5050090;23;20131;-47
2022/04/02 06:16:03;;;;;;;1.02;0.40;;;24.40;63.40;;;;;;5048997;23;20027;-49
2022/04/02 06:18:26;;;;;;;1.27;0.30;;;24.40;63.40;;;;;;5052259;23;20013;-48
2022/04/02 06:20:48;;;;;;;0.32;0.30;;;24.40;63.50;;;;;;5051458;23;20109;-48
2022/04/02 06:23:11;;;;;;;0.38;0.20;;;24.40;63.40;;;;;;5041690;23;20408;-50
2022/04/02 06:25:33;;;;;;;0.40;0.40;;;24.40;63.30;;;;;;5057171;23;20021;-53
2022/04/02 06:27:56;;;;;;;0.60;0.40;;;24.40;63.30;;;;;;5048926;23;20104;-52
2022/04/02 06:30:20;;;;;;;0.55;0.30;;;24.40;63.40;;;;;;5052383;23;20044;-49
2022/04/02 06:32:44;;;;;;;0.85;0.40;;;24.40;63.40;;;;;;5059230;23;20013;-54
2022/04/02 06:35:07;;;;;;;1.65;0.40;;;24.40;63.50;;;;;;5018758;23;20368;-48
2022/04/02 06:37:38;;;;;;;1.02;0.43;;;24.40;63.50;;;;;;5049977;23;20374;-47
2022/04/02 06:40:01;;;;;;;0.70;0.57;;;24.40;63.50;;;;;;5047989;23;20017;-48
2022/04/02 06:42:23;;;;;;;1.33;0.40;;;24.40;63.50;;;;;;5052121;23;20097;-48
2022/04/02 06:44:46;;;;;;;1.75;0.40;;;24.40;63.40;;;;;;5057004;23;20023;-46
2022/04/02 06:47:08;;;;;;;0.82;0.68;;;24.40;63.50;;;;;;5054245;23;20044;-50
2022/04/02 06:49:31;;;;;;;0.70;0.50;;;24.40;63.50;;;;;;5049178;23;20028;-52
2022/04/02 06:51:53;;;;;;;1.70;0.88;;;24.40;63.50;;;;;;5057451;23;20018;-45
2022/04/02 06:54:16;;;;;;;0.98;0.65;;;24.40;63.80;;;;;;5059687;23;20017;-50
2022/04/02 06:56:38;;;;;;;1.80;0.85;;;24.50;64.00;;;;;;5052162;23;20100;-50
2022/04/02 06:59:00;;;;;;;2.13;0.73;;;24.50;64.00;;;;;;5059324;23;20013;-50
2022/04/02 07:01:23;;;;;;;1.83;0.80;;;24.60;64.10;;;;;;5056493;23;20097;-49
2022/04/02 07:03:46;;;;;;;0.95;0.65;;;24.60;64.10;;;;;;5056262;23;20044;-44
2022/04/02 07:06:08;;;;;;;0.38;0.38;;;24.60;64.10;;;;;;5053458;23;20908;-51
2022/04/02 07:08:31;;;;;;;0.70;0.43;;;24.60;64.00;;;;;;5055228;23;20314;-51
2022/04/02 07:10:54;;;;;;;1.38;0.57;;;24.60;63.90;;;;;;5055708;23;20095;-46
2022/04/02 07:13:16;;;;;;;2.00;0.70;;;24.60;63.60;;;;;;5056793;23;21027;-47
2022/04/02 07:15:40;;;;;;;1.60;0.60;;;24.70;63.70;;;;;;5060002;23;20013;-49
2022/04/02 07:18:06;;;;;;;;;;;24.70;63.60;;;;;;5054111;23;20017;-43
2022/04/02 07:20:29;;;;;;;1.33;0.57;;;24.70;63.70;;;;;;5053932;23;19905;-48
2022/04/02 07:22:53;;;;;;;0.90;0.57;;;24.70;63.70;;;;;;5045865;23;20512;-44
2022/04/02 07:25:16;;;;;;;0.68;0.50;;;24.70;63.50;;;;;;5053427;23;20027;-48
2022/04/02 07:27:40;;;;;;;0.57;0.40;;;24.60;63.40;;;;;;5059265;23;20468;-48
2022/04/02 07:30:02;;;;;;;2.83;0.70;;;24.60;63.40;;;;;;5053604;23;20415;-50
2022/04/02 07:32:25;;;;;;;1.30;0.43;;;24.60;63.40;;;;;;5051242;23;20056;-46
2022/04/02 07:34:49;;;;;;;0.65;0.45;;;24.60;63.40;;;;;;5056016;23;20918;-50
2022/04/02 07:37:43;;;;;;;0.45;0.43;;;24.60;63.50;;;;;;5049757;23;20406;-50
2022/04/02 07:40:20;;;;;;;0.85;0.70;;;24.60;63.50;;;;;;5053181;23;20068;-46
2022/04/02 07:43:06;;;;;;;3.55;1.63;;;24.60;63.50;;;;;;5050918;23;20068;-47
2022/04/02 07:45:35;;;;;;;8.38;2.28;;;24.50;63.50;;;;;;5050916;23;20079;-47
2022/04/02 07:47:58;;;;;;;8.80;2.63;;;24.50;63.50;;;;;;5057530;23;20060;-48
2022/04/02 07:50:27;;;;;;;16.38;2.38;;;24.50;63.50;;;;;;5057251;23;20056;-51
2022/04/02 07:52:52;;;;;;;6.47;2.03;;;24.50;63.60;;;;;;5060217;23;20014;-46
2022/04/02 07:55:17;;;;;;;6.68;2.20;;;24.50;63.60;;;;;;5069832;23;20025;-45
2022/04/02 07:57:45;;;;;;;4.45;1.98;;;24.40;63.50;;;;;;5063907;23;20092;-43
2022/04/02 08:00:13;;;;;;;8.10;3.25;;;24.40;63.50;;;;;;5058087;23;20016;-50
2022/04/02 08:03:15;;;;;;;7.70;2.97;;;24.40;63.90;;;;;;5060589;23;20009;-44
2022/04/02 08:05:41;;;;;;;7.55;3.10;;;24.40;63.40;;;;;;5064515;23;20034;-50
2022/04/02 08:08:07;;;;;;;5.53;2.60;;;24.40;63.50;;;;;;5061601;23;20052;-51
2022/04/02 08:10:30;;;;;;;4.30;2.60;;;24.40;63.50;;;;;;5057548;23;20021;-52
2022/04/02 08:12:55;;;;;;;7.65;2.38;;;24.40;63.40;;;;;;5057923;23;20013;-48
2022/04/02 08:15:20;;;;;;;5.22;2.30;;;24.40;63.30;;;;;;5053405;23;20024;-51
2022/04/02 08:17:46;;;;;;;2.97;2.08;;;24.30;63.10;;;;;;5062228;23;20773;-51
2022/04/02 08:20:10;;;;;;;3.38;2.20;;;24.30;63.10;;;;;;5042721;23;20032;-51
2022/04/02 08:22:32;;;;;;;;;;;24.30;62.80;;;;;;5042445;23;20606;-52
2022/04/02 08:24:58;;;;;;;4.55;1.80;;;24.30;62.80;;;;;;5053398;23;20586;-47
2022/04/02 08:27:55;;;;;;;3.30;1.60;;;24.30;62.90;;;;;;5048773;23;20017;-48
2022/04/02 08:30:26;;;;;;;4.10;1.50;;;24.20;63.10;;;;;;5046755;23;20902;-50
2022/04/02 08:33:05;;;;;;;4.15;1.65;;;24.20;63.10;;;;;;5046940;23;20009;-48
2022/04/02 08:35:58;;;;;;;2.53;1.30;;;24.20;63.20;;;;;;5047554;23;20396;-47
2022/04/02 08:38:26;;;;;;;3.03;1.65;;;24.20;63.30;;;;;;5045037;23;20013;-46
2022/04/02 08:41:16;;;;;;;1.90;1.25;;;24.20;63.40;;;;;;5052178;23;20025;-48
2022/04/02 08:43:41;;;;;;;4.25;1.10;;;24.20;63.40;;;;;;5048466;23;20159;-51
2022/04/02 08:46:31;;;;;;;1.23;1.13;;;24.20;63.50;;;;;;5043590;23;20112;-45
2022/04/02 08:49:08;;;;;;;3.30;1.17;;;24.20;63.70;;;;;;5036604;23;20021;-48
2022/04/02 08:51:46;;;;;;;1.88;1.10;;;24.20;63.70;;;;;;5044269;23;20788;-46
2022/04/02 08:54:24;;;;;;;3.03;1.10;;;24.10;63.70;;;;;;5050333;23;20111;-49
2022/04/02 08:56:48;;;;;;;6.90;1.38;;;24.10;63.70;;;;;;5043175;23;20014;-47
2022/04/02 08:59:26;;;;;;;1.52;0.95;;;24.10;63.70;;;;;;5044111;23;20047;-44
2022/04/02 09:01:51;;;;;;;2.15;1.40;;;24.10;63.80;;;;;;5032712;23;20017;-54
2022/04/02 09:04:55;;;;;;;1.02;0.95;;;24.10;63.90;;;;;;5043429;23;20021;-48
2022/04/02 09:07:49;;;;;;;1.52;1.13;;;24.00;64.10;;;;;;5036385;23;20049;-48
2022/04/02 09:10:56;;;;;;;1.00;1.00;;;24.00;64.20;;;;;;5021563;23;20026;-49
2022/04/02 09:13:22;;;;;;;1.00;0.90;;;24.10;64.30;;;;;;5050403;23;20804;-47
2022/04/02 09:16:11;;;;;;;1.40;1.20;;;24.00;64.90;;;;;;5043291;23;20040;-47
2022/04/02 09:18:37;;;;;;;0.93;0.93;;;24.00;64.20;;;;;;5045428;23;20052;-45
2022/04/02 09:21:19;;;;;;;0.98;0.98;;;24.00;64.20;;;;;;5054760;23;20013;-51
2022/04/02 09:24:02;;;;;;;1.20;0.98;;;24.00;64.30;;;;;;5052114;23;20510;-47
2022/04/02 09:26:55;;;;;;;0.80;0.80;;;24.00;64.30;;;;;;5052856;23;20017;-50
2022/04/02 09:29:38;;;;;;;0.85;0.85;;;24.00;64.20;;;;;;5046456;23;20416;-48
2022/04/02 09:32:28;;;;;;;1.13;1.00;;;24.00;64.20;;;;;;5041708;23;20104;-49
2022/04/02 09:35:30;;;;;;;0.90;0.82;;;24.00;64.20;;;;;;5044690;23;20047;-50
2022/04/02 09:38:11;;;;;;;0.88;0.88;;;24.00;64.20;;;;;;5048524;23;20028;-50
2022/04/02 09:40:48;;;;;;;1.00;1.00;;;24.00;64.20;;;;;;5037534;23;20052;-48
2022/04/02 09:43:37;;;;;;;1.08;0.98;;;24.00;64.10;;;;;;5048051;23;20025;-49
2022/04/02 09:46:21;;;;;;;0.80;0.80;;;24.00;64.10;;;;;;5050784;23;20068;-48
2022/04/02 09:49:13;;;;;;;0.88;0.88;;;24.00;64.10;;;;;;5049846;23;20424;-48
2022/04/02 09:51:40;;;;;;;0.85;0.85;;;24.00;64.10;;;;;;5042508;23;20060;-49
2022/04/02 09:54:09;;;;;;;0.70;0.70;;;23.90;64.20;;;;;;5052352;23;20083;-47
2022/04/02 09:56:39;;;;;;;1.27;0.80;;;24.00;64.30;;;;;;5049393;23;20041;-48
2022/04/02 09:59:06;;;;;;;1.45;0.90;;;24.00;64.30;;;;;;5053991;23;20036;-52
2022/04/02 10:01:46;;;;;;;0.90;0.90;;;24.00;64.30;;;;;;5052720;23;20549;-48
2022/04/02 10:04:52;;;;;;;0.90;0.90;;;24.00;64.30;;;;;;5052343;23;20478;-46
2022/04/02 10:07:36;;;;;;;0.85;0.85;;;24.00;64.70;;;;;;5046113;23;20073;-47
2022/04/02 10:09:58;;;;;;;;;;;23.90;64.30;;;;;;5054164;23;20014;-48
2022/04/02 10:12:24;;;;;;;1.95;0.90;;;23.90;64.30;;;;;;5048002;23;19914;-46
2022/04/02 10:14:48;;;;;;;0.90;0.70;;;23.90;64.30;;;;;;5056104;23;20760;-47
2022/04/02 10:17:13;;;;;;;0.80;0.80;;;23.90;64.30;;;;;;5050430;23;20049;-50
2022/04/02 10:19:38;;;;;;;0.90;0.90;;;23.90;64.30;;;;;;5049279;23;20017;-47
2022/04/02 10:22:06;;;;;;;0.80;0.80;;;23.90;64.40;;;;;;5046571;23;20024;-49
2022/04/02 10:24:37;;;;;;;0.90;0.90;;;23.90;64.40;;;;;;5050600;23;20078;-49
2022/04/02 10:27:03;;;;;;;0.95;0.95;;;23.90;64.50;;;;;;5055075;23;20024;-52
2022/04/02 10:29:29;;;;;;;0.90;0.90;;;23.80;64.40;;;;;;5048414;23;20022;-46
2022/04/02 10:32:04;;;;;;;1.00;0.98;;;23.90;64.50;;;;;;5055938;23;20029;-50
2022/04/02 10:34:54;;;;;;;1.05;0.80;;;23.90;64.50;;;;;;5046057;23;20021;-54
2022/04/02 10:37:17;;;;;;;0.82;0.82;;;23.90;64.50;;;;;;5050120;23;20564;-51
2022/04/02 10:39:58;;;;;;;1.05;1.00;;;23.90;64.50;;;;;;5050737;23;20021;-46
2022/04/02 10:42:36;;;;;;;2.65;1.00;;;23.90;64.50;;;;;;5056116;23;20014;-47
2022/04/02 10:45:14;;;;;;;0.93;0.90;;;23.80;64.50;;;;;;5054223;23;20597;-52
2022/04/02 10:48:02;;;;;;;1.02;0.80;;;23.80;64.50;;;;;;5040896;23;20018;-48
2022/04/02 10:50:25;;;;;;;1.05;0.90;;;23.80;64.50;;;;;;5037405;23;20151;-48
2022/04/02 10:52:49;;;;;;;0.98;0.98;;;23.80;64.40;;;;;;5051809;23;20105;-53
2022/04/02 10:55:15;;;;;;;1.00;1.00;;;23.80;64.40;;;;;;5047735;23;20100;-50
2022/04/02 10:57:37;;;;;;;0.90;0.90;;;23.80;64.50;;;;;;5025009;23;20024;-51
2022/04/02 11:00:07;;;;;;;0.90;0.90;;;23.80;64.50;;;;;;5049735;23;20825;-53
2022/04/02 11:02:39;;;;;;;0.98;0.98;;;23.80;64.50;;;;;;5050243;23;20013;-46
2022/04/02 11:05:06;;;;;;;0.90;0.90;;;23.80;64.50;;;;;;5052322;23;20561;-51
2022/04/02 11:07:40;;;;;;;0.70;0.70;;;23.80;64.50;;;;;;5054131;23;20606;-50
2022/04/02 11:10:04;;;;;;;0.77;0.77;;;23.80;64.50;;;;;;5051710;23;20088;-50
2022/04/02 11:12:39;;;;;;;0.88;0.88;;;23.80;64.40;;;;;;5054608;23;20033;-48
2022/04/02 11:15:19;;;;;;;0.88;0.88;;;23.80;64.50;;;;;;5050150;23;20044;-49
2022/04/02 11:17:45;;;;;;;0.80;0.80;;;23.80;64.50;;;;;;5048657;23;20071;-48
2022/04/02 11:20:10;;;;;;;0.80;0.80;;;23.80;64.50;;;;;;5054699;23;20183;-51
2022/04/02 11:23:02;;;;;;;0.73;0.73;;;23.70;64.50;;;;;;5052213;23;20478;-47
2022/04/02 11:25:39;;;;;;;0.90;0.90;;;23.80;64.50;;;;;;5050223;23;20021;-44
2022/04/02 11:28:15;;;;;;;0.77;0.77;;;23.70;64.50;;;;;;5042792;23;20017;-52
2022/04/02 11:30:43;;;;;;;0.80;0.80;;;23.80;64.50;;;;;;5048731;23;20104;-42
2022/04/02 11:33:08;;;;;;;1.33;0.95;;;23.70;64.50;;;;;;5051321;23;20013;-46
2022/04/02 11:35:32;;;;;;;0.90;0.90;;;23.70;64.60;;;;;;5047200;23;20014;-46
2022/04/02 11:37:54;;;;;;;;;;;23.70;64.60;;;;;;5055948;23;20883;-49
2022/04/02 11:40:18;;;;;;;0.93;0.93;;;23.70;64.60;;;;;;5051268;23;19953;-47
2022/04/02 11:42:47;;;;;;;0.80;0.80;;;23.70;64.50;;;;;;5057070;23;20080;-48
2022/04/02 11:45:11;;;;;;;0.95;0.95;;;23.70;64.60;;;;;;5048661;23;21033;-51
2022/04/02 11:47:37;;;;;;;1.00;1.00;;;23.70;64.50;;;;;;5044515;23;20032;-46
2022/04/02 11:50:06;;;;;;;0.98;0.98;;;23.70;64.50;;;;;;5055219;23;20017;-49
2022/04/02 11:52:47;;;;;;;0.88;0.88;;;23.60;64.50;;;;;;5049209;23;20534;-49
2022/04/02 11:55:10;;;;;;;1.10;1.00;;;23.60;64.50;;;;;;5058328;23;20014;-50
2022/04/02 11:57:32;;;;;;;0.80;0.80;;;23.60;64.50;;;;;;5062894;23;20021;-45
2022/04/02 11:59:57;;;;;;;0.80;0.80;;;23.60;64.70;;;;;;5056818;23;20017;-53
2022/04/02 12:02:39;;;;;;;0.85;0.85;;;23.60;64.60;;;;;;5057214;23;20033;-47
2022/04/02 12:05:05;;;;;;;0.68;0.68;;;23.60;64.50;;;;;;5017559;23;20172;-48
2022/04/02 12:07:42;;;;;;;1.08;1.05;;;23.60;64.50;;;;;;5067555;23;20009;-47
2022/04/02 12:10:07;;;;;;;1.20;1.10;;;23.60;64.50;;;;;;5065730;23;20083;-51
2022/04/02 12:12:30;;;;;;;2.85;1.17;;;23.60;64.50;;;;;;5068027;23;20498;-46
2022/04/02 12:14:58;;;;;;;0.88;0.88;;;23.60;64.50;;;;;;5060292;23;20017;-45
2022/04/02 12:17:29;;;;;;;3.10;0.90;;;23.60;64.60;;;;;;5065477;23;20010;-47
2022/04/02 12:19:55;;;;;;;7.82;1.02;;;23.60;64.50;;;;;;5064897;23;20013;-44
2022/04/02 12:22:30;;;;;;;7.72;1.23;;;23.50;64.40;;;;;;5053207;23;20020;-52
2022/04/02 12:24:58;;;;;;;7.60;1.60;;;23.50;64.50;;;;;;5044717;23;20032;-49
2022/04/02 12:27:22;;;;;;;3.75;1.33;;;23.50;64.50;;;;;;5053944;23;20068;-48
2022/04/02 12:29:48;;;;;;;1.92;0.85;;;23.50;64.60;;;;;;5051448;23;20100;-44
2022/04/02 12:32:11;;;;;;;0.93;0.90;;;23.50;64.60;;;;;;5022047;23;20562;-44
2022/04/02 12:34:33;;;;;;;3.42;0.95;;;23.50;64.60;;;;;;5054142;23;20068;-50
2022/04/02 12:37:03;;;;;;;1.25;0.95;;;23.50;64.70;;;;;;5021510;23;20017;-50
2022/04/02 12:39:27;;;;;;;0.80;0.80;;;23.50;64.80;;;;;;5054799;23;20111;-50
2022/04/02 12:41:50;;;;;;;2.50;1.05;;;23.50;64.80;;;;;;5049507;23;20822;-49
2022/04/02 12:44:18;;;;;;;1.13;1.05;;;23.50;64.70;;;;;;5048725;23;20014;-50
2022/04/02 12:46:42;;;;;;;5.13;1.13;;;23.50;64.70;;;;;;5049937;23;20554;-46
2022/04/02 12:49:05;;;;;;;2.70;1.45;;;23.50;64.70;;;;;;5041671;23;20025;-46
2022/04/02 12:51:27;;;;;;;2.42;1.00;;;23.50;64.60;;;;;;5051040;23;20415;-45
2022/04/02 12:53:59;;;;;;;4.68;1.27;;;23.50;64.60;;;;;;5041533;23;20104;-46
2022/04/02 12:56:26;;;;;;;2.08;1.00;;;23.40;64.70;;;;;;5052496;23;20909;-46
2022/04/02 12:58:50;;;;;;;5.68;1.50;;;23.40;64.70;;;;;;5049515;23;20444;-48
2022/04/02 13:01:15;;;;;;;;;;;23.40;64.80;;;;;;5048959;23;20017;-43
2022/04/02 13:03:54;;;;;;;3.35;0.52;;;23.40;64.70;;;;;;5055949;23;19908;-45
2022/04/02 13:06:19;;;;;;;1.70;0.63;;;23.40;64.70;;;;;;5055807;23;20009;-44
2022/04/02 13:08:54;;;;;;;0.52;0.38;;;23.40;64.70;;;;;;5050514;23;20017;-53
2022/04/02 13:11:40;;;;;;;0.28;0.28;;;23.30;64.70;;;;;;5046668;23;20451;-51